Huvudsida
METAR-TAF:

METAR-TAF

Flygplatser :

Ushuaia Aerodrome

Ushuaia, Argentina

latitud: 54-48S, longitud: 068-19W, höjd: 16 m

Aktuellt väderrapport

Denna rapport gjordes för 27 minuter sedan, klockan 19:00 UTC
Vind 19 kt från sydväst
Temperatur 12°C
Fuktighet 76%
Tryck 1012 hPa
Sikt 10 km eller mer
Spridda moln på en höjd av 4800 ft

METAR: SAWH 111900Z 23019KT 9999 SCT048 12/08 Q1012

Tid: 16:27 (19:27 UTC)

Väderprognos

Denna rapport gjordes för 2 timmar och 27 minuter sedan, klockan 17:00 UTC
Prognos gäller från 11 kl. 18 UTC till 12 kl. 18 UTC
Vind 15 kt från sydväst
Sikt 10 km eller mer
Brutna moln på en höjd av 3000 ft
Blir
från 11 kl. 19 UTC till 11 kl. 20 UTC
Vind 5 kt varierande vindriktning

TAF: SAWH 111700Z 1118/1218 23015KT 9999 BKN030 TX15/1118Z TN03/1210Z BECMG 1119/1120 VRB05KT

Aktuella väderrapporter och prognoser från 4000 flygplatser (METAR- och TAF-rapporter).

De tillgängliga stationerna syns som gula och röda prickar på kartan.

För musen över prickarna för att se namnen på stationerna.

Klicka sedan för att få väderrapporter och prognoser.

För att ändra kartan: Klicka på de gröna knapparna med ett svart kors på för att zooma in; den gröna knappen med ett streck på för att zooma ut; eller på de gröna pilarna för angränsande kartor.


METAR-TAF: